createdAt,value
2023-05-14T00:01:10.652Z,6.30
2023-05-14T00:03:41.246Z,7.20
2023-05-14T00:06:10.970Z,7.60
2023-05-14T00:08:38.861Z,7.50
2023-05-14T00:11:09.134Z,7.00
2023-05-14T00:13:37.174Z,7.00
2023-05-14T00:16:05.527Z,7.20
2023-05-14T00:18:33.558Z,6.80
2023-05-14T00:21:01.647Z,7.10
2023-05-14T00:23:29.586Z,6.20
2023-05-14T00:25:57.538Z,6.60
2023-05-14T00:28:25.539Z,6.50
2023-05-14T00:30:53.461Z,7.20
2023-05-14T00:33:21.469Z,7.80
2023-05-14T00:35:49.349Z,7.00
2023-05-14T00:38:19.498Z,6.60
2023-05-14T00:40:51.485Z,6.40
2023-05-14T00:43:20.848Z,7.30
2023-05-14T00:45:53.121Z,7.00
2023-05-14T00:48:21.563Z,6.80
2023-05-14T00:50:49.765Z,6.40
2023-05-14T00:53:18.973Z,7.00
2023-05-14T00:55:47.085Z,6.90
2023-05-14T00:58:15.162Z,7.20
2023-05-14T01:00:43.113Z,6.30
2023-05-14T01:03:11.242Z,7.80
2023-05-14T01:06:12.504Z,7.40
2023-05-14T01:08:58.625Z,7.70
2023-05-14T01:11:31.065Z,6.90
2023-05-14T01:14:08.294Z,7.50
2023-05-14T01:16:36.940Z,7.00
2023-05-14T01:19:06.333Z,6.50
2023-05-14T01:21:38.920Z,7.10
2023-05-14T01:24:07.743Z,7.20
2023-05-14T01:26:36.052Z,8.30
2023-05-14T01:29:23.145Z,5.90
2023-05-14T01:31:51.581Z,6.20
2023-05-14T01:34:21.566Z,7.40
2023-05-14T01:36:50.075Z,6.60
2023-05-14T01:39:18.086Z,6.80
2023-05-14T01:41:47.113Z,6.60
2023-05-14T01:44:15.077Z,7.80
2023-05-14T01:46:43.027Z,6.70
2023-05-14T01:49:10.984Z,7.40
2023-05-14T01:51:39.038Z,8.00
2023-05-14T01:54:06.952Z,7.20
2023-05-14T01:56:34.842Z,8.00
2023-05-14T01:59:02.808Z,8.10
2023-05-14T02:01:30.899Z,6.80
2023-05-14T02:03:58.955Z,8.00
2023-05-14T02:06:27.213Z,7.30
2023-05-14T02:08:57.277Z,8.00
2023-05-14T02:11:25.271Z,8.30
2023-05-14T02:13:53.155Z,8.70
2023-05-14T02:16:21.087Z,8.80
2023-05-14T02:18:49.097Z,8.10
2023-05-14T02:21:17.186Z,9.10
2023-05-14T02:23:45.108Z,8.20
2023-05-14T02:26:13.188Z,8.70
2023-05-14T02:28:41.100Z,8.40
2023-05-14T02:31:09.202Z,8.20
2023-05-14T02:33:37.181Z,9.40
2023-05-14T02:36:05.982Z,9.10
2023-05-14T02:38:33.950Z,8.00
2023-05-14T02:41:01.873Z,9.50
2023-05-14T02:43:29.944Z,8.30
2023-05-14T02:45:57.990Z,9.80
2023-05-14T02:48:26.765Z,8.30
2023-05-14T02:50:54.710Z,9.70
2023-05-14T02:53:22.688Z,10.30
2023-05-14T02:55:50.665Z,10.20
2023-05-14T02:58:19.338Z,9.70
2023-05-14T03:00:53.963Z,9.40
2023-05-14T03:03:22.427Z,10.10
2023-05-14T03:05:51.264Z,11.40
2023-05-14T03:08:19.138Z,11.00
2023-05-14T03:10:47.101Z,11.00
2023-05-14T03:13:20.175Z,9.90
2023-05-14T03:15:48.833Z,9.90
2023-05-14T03:18:16.872Z,11.00
2023-05-14T03:20:44.870Z,12.80
2023-05-14T03:23:13.205Z,12.40
2023-05-14T03:25:41.344Z,9.90
2023-05-14T03:28:09.900Z,10.70
2023-05-14T03:30:37.884Z,12.70
2023-05-14T03:33:06.003Z,12.20
2023-05-14T03:35:34.039Z,11.40
2023-05-14T03:38:02.053Z,10.30
2023-05-14T03:40:30.199Z,11.30
2023-05-14T03:42:58.153Z,10.30
2023-05-14T03:45:27.093Z,11.20
2023-05-14T03:47:55.141Z,9.70
2023-05-14T03:50:25.718Z,11.20
2023-05-14T03:52:55.122Z,12.80
2023-05-14T03:55:23.283Z,11.50
2023-05-14T03:57:51.279Z,13.30
2023-05-14T04:00:19.643Z,12.10
2023-05-14T04:02:47.616Z,11.60
2023-05-14T04:05:16.864Z,11.90
2023-05-14T04:07:45.933Z,11.70
2023-05-14T04:10:13.998Z,11.00
2023-05-14T04:12:41.956Z,10.50
2023-05-14T04:15:10.976Z,11.70
2023-05-14T04:17:39.280Z,12.00
2023-05-14T04:20:08.065Z,12.50
2023-05-14T04:23:09.043Z,12.30
2023-05-14T04:25:36.977Z,13.20
2023-05-14T04:28:05.162Z,12.80
2023-05-14T04:30:33.064Z,12.40
2023-05-14T04:33:01.028Z,11.40
2023-05-14T04:35:29.382Z,12.10
2023-05-14T04:37:57.312Z,11.60
2023-05-14T04:40:25.746Z,12.20
2023-05-14T04:42:53.891Z,10.90
2023-05-14T04:45:21.906Z,11.20
2023-05-14T04:47:49.851Z,11.20
2023-05-14T04:50:17.907Z,10.90
2023-05-14T04:52:45.850Z,10.20
2023-05-14T04:55:13.743Z,10.80
2023-05-14T04:57:41.685Z,10.10
2023-05-14T05:00:10.316Z,10.30
2023-05-14T05:02:38.438Z,11.20
2023-05-14T05:05:06.549Z,11.10
2023-05-14T05:07:34.514Z,11.10
2023-05-14T05:10:02.842Z,11.10
2023-05-14T05:12:30.967Z,10.30
2023-05-14T05:14:58.939Z,11.30
2023-05-14T05:17:27.035Z,11.60
2023-05-14T05:19:55.316Z,10.70
2023-05-14T05:22:23.818Z,10.30
2023-05-14T05:24:51.788Z,10.80
2023-05-14T05:27:21.204Z,11.20
2023-05-14T05:29:49.213Z,11.20
2023-05-14T05:32:17.169Z,11.50
2023-05-14T05:34:45.480Z,12.10
2023-05-14T05:37:14.950Z,10.70
2023-05-14T05:39:42.951Z,11.40
2023-05-14T05:42:10.985Z,11.20
2023-05-14T05:44:39.020Z,10.40
2023-05-14T05:47:07.117Z,10.70
2023-05-14T05:49:36.908Z,11.30
2023-05-14T05:52:05.196Z,9.80
2023-05-14T05:54:33.177Z,11.00
2023-05-14T05:57:01.242Z,10.70
2023-05-14T05:59:29.093Z,12.00
2023-05-14T06:01:57.041Z,11.80
2023-05-14T06:04:25.117Z,11.40
2023-05-14T06:06:53.871Z,11.50
2023-05-14T06:09:21.785Z,10.00
2023-05-14T06:11:49.736Z,11.70
2023-05-14T06:14:17.650Z,10.30
2023-05-14T06:16:45.939Z,9.40
2023-05-14T06:19:14.044Z,10.80
2023-05-14T06:21:42.293Z,11.40
2023-05-14T06:24:10.769Z,10.00
2023-05-14T06:26:38.967Z,11.60
2023-05-14T06:29:06.862Z,10.30
2023-05-14T06:31:34.812Z,11.10
2023-05-14T06:34:02.783Z,8.90
2023-05-14T06:36:31.101Z,9.40
2023-05-14T06:38:59.095Z,9.40
2023-05-14T06:41:27.029Z,9.80
2023-05-14T06:43:55.468Z,9.80
2023-05-14T06:46:23.429Z,10.80
2023-05-14T06:48:53.325Z,9.80
2023-05-14T06:51:21.749Z,10.50
2023-05-14T06:53:49.840Z,11.20
2023-05-14T06:56:17.845Z,7.80
2023-05-14T06:58:45.742Z,10.40
2023-05-14T07:01:13.726Z,11.30
2023-05-14T07:03:41.679Z,9.80
2023-05-14T07:06:10.359Z,9.90
2023-05-14T07:08:40.336Z,11.00
2023-05-14T07:11:08.265Z,11.20
2023-05-14T07:13:36.376Z,11.50
2023-05-14T07:16:04.686Z,10.40
2023-05-14T07:18:32.888Z,9.50
2023-05-14T07:21:00.976Z,11.10
2023-05-14T07:23:28.989Z,10.10
2023-05-14T07:25:56.942Z,9.30
2023-05-14T07:28:24.821Z,8.60
2023-05-14T07:30:52.784Z,7.40
2023-05-14T07:33:21.120Z,8.10
2023-05-14T07:35:49.093Z,8.30
2023-05-14T07:38:17.235Z,8.20
2023-05-14T07:40:45.251Z,7.90
2023-05-14T07:43:14.125Z,7.60
2023-05-14T07:45:42.111Z,7.60
2023-05-14T07:48:10.198Z,8.30
2023-05-14T07:50:38.310Z,7.30
2023-05-14T07:53:06.431Z,7.10
2023-05-14T07:55:34.420Z,6.40
2023-05-14T07:58:02.510Z,6.60
2023-05-14T08:00:31.006Z,7.20
2023-05-14T08:02:59.271Z,7.80
2023-05-14T08:05:27.504Z,6.10
2023-05-14T08:07:55.505Z,7.20
2023-05-14T08:10:23.871Z,4.90
2023-05-14T08:12:52.084Z,6.70
2023-05-14T08:15:20.426Z,6.60
2023-05-14T08:17:48.716Z,5.60
2023-05-14T08:20:16.766Z,6.20
2023-05-14T08:25:26.747Z,6.00
2023-05-14T08:27:54.842Z,4.90
2023-05-14T08:30:23.461Z,5.50
2023-05-14T08:32:51.867Z,4.80
2023-05-14T08:35:20.119Z,4.20
2023-05-14T08:37:48.130Z,4.00
2023-05-14T08:40:16.549Z,2.70
2023-05-14T08:42:45.294Z,3.60
2023-05-14T08:45:16.349Z,3.50
2023-05-14T08:47:52.018Z,3.40
2023-05-14T08:50:22.737Z,3.50
2023-05-14T08:52:51.935Z,3.50
2023-05-14T08:55:19.832Z,3.20
2023-05-14T08:57:47.880Z,2.80
2023-05-14T09:00:16.155Z,3.40
2023-05-14T09:02:45.011Z,3.60
2023-05-14T09:05:13.503Z,2.90
2023-05-14T09:07:41.412Z,3.20
2023-05-14T09:10:09.499Z,3.10
2023-05-14T09:12:37.406Z,3.00
2023-05-14T09:15:06.844Z,3.60
2023-05-14T09:17:34.921Z,3.30
2023-05-14T09:20:04.331Z,3.30
2023-05-14T09:22:32.459Z,3.50
2023-05-14T09:25:11.196Z,3.70
2023-05-14T09:27:39.198Z,3.00
2023-05-14T09:30:09.366Z,3.10
2023-05-14T09:32:44.378Z,3.00
2023-05-14T09:35:17.903Z,3.30
2023-05-14T09:37:47.480Z,2.70
2023-05-14T09:40:16.303Z,3.00
2023-05-14T09:42:44.472Z,2.90
2023-05-14T09:45:12.432Z,3.80
2023-05-14T09:47:40.508Z,3.20
2023-05-14T09:50:08.944Z,3.20
2023-05-14T09:52:37.380Z,3.30
2023-05-14T09:55:05.785Z,3.50
2023-05-14T09:57:34.666Z,3.40
2023-05-14T10:00:03.018Z,3.30
2023-05-14T10:02:38.092Z,3.30
2023-05-14T10:05:06.923Z,3.40
2023-05-14T10:07:43.182Z,3.10
2023-05-14T10:10:14.031Z,3.50
2023-05-14T10:12:42.268Z,3.30
2023-05-14T10:15:20.043Z,3.50
2023-05-14T10:17:50.479Z,3.60
2023-05-14T10:20:18.457Z,3.20
2023-05-14T10:22:46.422Z,3.60
2023-05-14T10:25:14.389Z,3.00
2023-05-14T10:27:42.621Z,2.90
2023-05-14T10:30:14.801Z,3.20
2023-05-14T10:32:44.265Z,3.50
2023-05-14T10:35:17.143Z,3.00
2023-05-14T10:37:46.423Z,2.80
2023-05-14T10:40:14.710Z,3.20
2023-05-14T10:42:43.803Z,3.20
2023-05-14T10:45:15.494Z,3.40
2023-05-14T10:47:46.097Z,3.80
2023-05-14T10:50:15.438Z,3.50
2023-05-14T10:52:44.195Z,3.20
2023-05-14T10:55:16.280Z,3.70
2023-05-14T10:57:45.458Z,3.20
2023-05-14T11:00:14.770Z,3.10
2023-05-14T11:02:44.236Z,2.90
2023-05-14T11:05:17.555Z,3.50
2023-05-14T11:07:47.865Z,3.10
2023-05-14T11:10:19.860Z,3.30
2023-05-14T11:12:48.725Z,3.60
2023-05-14T11:15:18.389Z,3.40
2023-05-14T11:17:47.063Z,3.60
2023-05-14T11:20:15.113Z,3.20
2023-05-14T11:22:43.364Z,3.00
2023-05-14T11:25:14.747Z,3.60
2023-05-14T11:27:43.811Z,3.50
2023-05-14T11:30:19.234Z,3.40
2023-05-14T11:32:48.250Z,3.90
2023-05-14T11:35:17.202Z,3.30
2023-05-14T11:37:54.248Z,3.60
2023-05-14T11:40:22.889Z,3.30
2023-05-14T11:42:52.373Z,3.30
2023-05-14T11:45:27.291Z,3.90
2023-05-14T11:47:55.431Z,3.30
2023-05-14T11:50:23.782Z,3.10
2023-05-14T11:52:56.620Z,3.70
2023-05-14T11:55:24.520Z,3.00
2023-05-14T11:57:52.650Z,3.20
2023-05-14T12:00:22.258Z,3.20
2023-05-14T12:02:50.508Z,3.20
2023-05-14T12:05:18.922Z,3.70
2023-05-14T12:07:47.540Z,3.20
2023-05-14T12:10:15.556Z,3.40
2023-05-14T12:12:45.935Z,3.60
2023-05-14T12:15:14.611Z,3.10
2023-05-14T12:17:42.674Z,3.20
2023-05-14T12:20:11.359Z,3.40
2023-05-14T12:22:41.598Z,3.00
2023-05-14T12:25:16.027Z,3.10
2023-05-14T12:27:53.477Z,3.40
2023-05-14T12:30:22.209Z,3.00
2023-05-14T12:32:52.745Z,3.20
2023-05-14T12:35:22.586Z,3.50
2023-05-14T12:37:53.234Z,3.20
2023-05-14T12:40:21.214Z,3.30
2023-05-14T12:42:49.153Z,3.40
2023-05-14T12:45:17.176Z,3.40
2023-05-14T12:47:46.297Z,3.30
2023-05-14T12:50:14.232Z,3.30
2023-05-14T12:52:42.190Z,3.30
2023-05-14T12:55:10.264Z,3.40
2023-05-14T12:57:39.292Z,3.20
2023-05-14T13:00:13.881Z,3.60
2023-05-14T13:02:43.834Z,3.60
2023-05-14T13:05:12.432Z,3.30
2023-05-14T13:07:40.760Z,3.40
2023-05-14T13:10:12.032Z,3.40
2023-05-14T13:12:42.258Z,4.00
2023-05-14T13:15:12.034Z,3.40
2023-05-14T13:17:41.488Z,3.30
2023-05-14T13:20:10.552Z,3.40
2023-05-14T13:22:41.750Z,3.30
2023-05-14T13:25:10.175Z,3.70
2023-05-14T13:27:38.116Z,3.80
2023-05-14T13:30:07.009Z,3.40
2023-05-14T13:32:34.963Z,3.40
2023-05-14T13:35:02.978Z,3.30
2023-05-14T13:37:30.937Z,3.70
2023-05-14T13:39:58.846Z,3.40
2023-05-14T13:42:27.204Z,3.40
2023-05-14T13:44:56.429Z,3.20
2023-05-14T13:47:24.620Z,3.20
2023-05-14T13:49:53.494Z,3.50
2023-05-14T13:52:21.939Z,3.20
2023-05-14T13:54:49.953Z,3.20
2023-05-14T13:57:17.918Z,3.40
2023-05-14T13:59:47.384Z,3.40
2023-05-14T14:02:15.451Z,3.20
2023-05-14T14:04:43.553Z,3.40
2023-05-14T14:07:11.484Z,3.30
2023-05-14T14:09:40.888Z,3.60
2023-05-14T14:12:09.365Z,3.20
2023-05-14T14:14:37.248Z,2.90
2023-05-14T14:17:05.397Z,3.60
2023-05-14T14:19:33.608Z,3.30
2023-05-14T14:22:01.550Z,3.20
2023-05-14T14:24:29.687Z,3.20
2023-05-14T14:26:57.635Z,3.00
2023-05-14T14:29:25.933Z,2.70
2023-05-14T14:31:53.888Z,3.10
2023-05-14T14:34:21.846Z,3.30
2023-05-14T14:36:49.835Z,3.50
2023-05-14T14:39:17.788Z,3.60
2023-05-14T14:41:45.877Z,3.20
2023-05-14T14:44:13.928Z,3.40
2023-05-14T14:46:43.066Z,3.40
2023-05-14T14:49:10.945Z,3.30
2023-05-14T14:51:38.828Z,3.50
2023-05-14T14:54:06.770Z,3.40
2023-05-14T14:56:34.990Z,3.50
2023-05-14T14:59:03.919Z,3.30
2023-05-14T15:01:32.078Z,3.70
2023-05-14T15:04:00.031Z,3.70
2023-05-14T15:06:28.053Z,3.20
2023-05-14T15:08:55.985Z,3.30
2023-05-14T15:11:24.168Z,3.30
2023-05-14T15:13:52.183Z,3.20
2023-05-14T15:16:20.279Z,3.30
2023-05-14T15:18:48.248Z,3.50
2023-05-14T15:21:16.612Z,3.70
2023-05-14T15:23:44.666Z,3.40
2023-05-14T15:26:12.934Z,3.50
2023-05-14T15:28:41.082Z,3.40
2023-05-14T15:31:10.268Z,3.50
2023-05-14T15:33:38.538Z,3.90
2023-05-14T15:36:06.925Z,3.20
2023-05-14T15:38:35.002Z,3.60
2023-05-14T15:41:03.363Z,3.50
2023-05-14T15:43:34.387Z,3.50
2023-05-14T15:46:02.526Z,3.20
2023-05-14T15:48:30.549Z,3.70
2023-05-14T15:50:59.433Z,3.00
2023-05-14T15:53:27.393Z,3.60
2023-05-14T15:55:55.357Z,4.10
2023-05-14T15:58:23.652Z,3.60
2023-05-14T16:00:52.199Z,3.10
2023-05-14T16:03:20.294Z,3.60
2023-05-14T16:05:48.684Z,3.30
2023-05-14T16:08:16.620Z,3.40
2023-05-14T16:10:44.568Z,3.60
2023-05-14T16:13:13.037Z,3.40
2023-05-14T16:15:41.040Z,3.80
2023-05-14T16:18:09.185Z,3.90
2023-05-14T16:20:37.159Z,4.20
2023-05-14T16:23:05.380Z,3.70
2023-05-14T16:25:33.473Z,4.10
2023-05-14T16:28:01.529Z,4.10
2023-05-14T16:30:29.816Z,3.40
2023-05-14T16:32:57.881Z,3.50
2023-05-14T16:35:26.064Z,3.70
2023-05-14T16:37:54.529Z,3.90
2023-05-14T16:40:23.942Z,3.80
2023-05-14T16:42:52.398Z,3.70
2023-05-14T16:45:20.402Z,4.60
2023-05-14T16:47:48.378Z,3.70
2023-05-14T16:50:16.627Z,3.70
2023-05-14T16:52:44.592Z,3.50
2023-05-14T16:55:12.845Z,3.50
2023-05-14T16:57:40.802Z,3.70
2023-05-14T17:00:09.890Z,3.70
2023-05-14T17:02:38.180Z,3.90
2023-05-14T17:05:08.671Z,3.60
2023-05-14T17:07:38.735Z,3.70
2023-05-14T17:10:07.410Z,3.50
2023-05-14T17:12:35.423Z,3.70
2023-05-14T17:15:05.666Z,4.10
2023-05-14T17:17:34.294Z,4.20
2023-05-14T17:20:02.530Z,3.80
2023-05-14T17:22:30.767Z,3.50
2023-05-14T17:24:58.801Z,3.80
2023-05-14T17:27:26.758Z,3.60
2023-05-14T17:29:54.868Z,4.10
2023-05-14T17:32:22.996Z,4.20
2023-05-14T17:34:51.078Z,4.10
2023-05-14T17:37:19.213Z,3.90
2023-05-14T17:39:47.288Z,4.20
2023-05-14T17:42:15.381Z,4.00
2023-05-14T17:44:43.947Z,3.70
2023-05-14T17:47:11.890Z,4.00
2023-05-14T17:49:39.797Z,4.20
2023-05-14T17:52:07.984Z,4.10
2023-05-14T17:54:36.116Z,4.00
2023-05-14T17:57:04.305Z,4.10
2023-05-14T17:59:32.259Z,4.10
2023-05-14T18:02:00.355Z,4.10
2023-05-14T18:04:28.337Z,4.00
2023-05-14T18:06:56.606Z,3.90
2023-05-14T18:09:24.534Z,3.90
2023-05-14T18:11:53.754Z,4.20
2023-05-14T18:14:22.657Z,4.10
2023-05-14T18:16:50.589Z,4.10
2023-05-14T18:19:18.512Z,4.30
2023-05-14T18:21:48.246Z,4.40
2023-05-14T18:24:16.328Z,4.00
2023-05-14T18:26:44.464Z,3.90
2023-05-14T18:29:12.751Z,4.00
2023-05-14T18:31:40.757Z,4.10
2023-05-14T18:34:08.801Z,4.00
2023-05-14T18:36:36.978Z,3.90
2023-05-14T18:39:04.911Z,5.00
2023-05-14T18:41:33.093Z,6.70
2023-05-14T18:44:02.346Z,6.20
2023-05-14T18:46:30.510Z,6.80
2023-05-14T18:48:58.670Z,14.40
2023-05-14T18:51:26.657Z,15.00
2023-05-14T18:53:54.868Z,16.00
2023-05-14T18:56:22.820Z,10.60
2023-05-14T18:58:50.831Z,11.90
2023-05-14T19:01:18.950Z,7.20
2023-05-14T19:03:47.050Z,6.50
2023-05-14T19:06:15.370Z,7.00
2023-05-14T19:08:43.415Z,7.20
2023-05-14T19:11:11.549Z,8.10
2023-05-14T19:13:39.862Z,7.70
2023-05-14T19:16:07.815Z,6.70
2023-05-14T19:18:35.866Z,6.60
2023-05-14T19:21:04.130Z,6.00
2023-05-14T19:23:32.909Z,6.10
2023-05-14T19:26:01.290Z,5.30
2023-05-14T19:28:29.911Z,6.00
2023-05-14T19:30:57.926Z,5.50
2023-05-14T19:33:29.094Z,6.00
2023-05-14T19:35:57.542Z,5.40
2023-05-14T19:38:25.613Z,5.20
2023-05-14T19:40:56.888Z,5.00
2023-05-14T19:43:26.260Z,6.50
2023-05-14T19:45:54.277Z,5.80
2023-05-14T19:48:22.339Z,5.30
2023-05-14T19:50:50.396Z,4.80
2023-05-14T19:53:18.354Z,5.20
2023-05-14T19:55:46.407Z,5.40
2023-05-14T19:58:14.367Z,5.30
2023-05-14T20:00:42.945Z,6.80
2023-05-14T20:03:11.064Z,7.20
2023-05-14T20:05:39.524Z,6.00
2023-05-14T20:08:08.319Z,5.60
2023-05-14T20:10:36.664Z,5.30
2023-05-14T20:13:05.069Z,5.60
2023-05-14T20:15:33.034Z,5.70
2023-05-14T20:18:01.484Z,5.40
2023-05-14T20:20:32.935Z,5.20
2023-05-14T20:23:01.834Z,5.70
2023-05-14T20:25:30.114Z,5.50
2023-05-14T20:28:00.425Z,5.80
2023-05-14T20:30:28.495Z,5.30
2023-05-14T20:32:56.722Z,14.60
2023-05-14T20:35:24.892Z,11.20
2023-05-14T20:37:53.914Z,9.90
2023-05-14T20:40:22.296Z,6.10
2023-05-14T20:42:50.960Z,5.70
2023-05-14T20:45:19.132Z,7.30
2023-05-14T20:47:47.349Z,25.70
2023-05-14T20:50:15.846Z,7.40
2023-05-14T20:52:44.680Z,9.70
2023-05-14T20:55:13.568Z,14.70
2023-05-14T20:57:41.728Z,12.10
2023-05-14T21:00:12.574Z,10.70
2023-05-14T21:02:40.855Z,10.50
2023-05-14T21:05:09.449Z,7.40
2023-05-14T21:07:37.610Z,10.70
2023-05-14T21:10:07.041Z,6.60
2023-05-14T21:12:34.904Z,8.90
2023-05-14T21:15:02.917Z,7.10
2023-05-14T21:17:30.787Z,6.60
2023-05-14T21:19:58.695Z,6.20
2023-05-14T21:22:27.137Z,6.40
2023-05-14T21:24:55.655Z,8.80
2023-05-14T21:27:23.578Z,9.40
2023-05-14T21:29:51.478Z,5.90
2023-05-14T21:32:20.397Z,6.50
2023-05-14T21:34:48.273Z,6.00
2023-05-14T21:37:16.209Z,6.50
2023-05-14T21:39:44.152Z,6.00
2023-05-14T21:42:12.100Z,6.30
2023-05-14T21:44:40.154Z,6.10
2023-05-14T21:47:08.055Z,6.00
2023-05-14T21:49:36.043Z,5.80
2023-05-14T21:52:05.304Z,5.90
2023-05-14T21:54:33.387Z,5.90
2023-05-14T21:57:01.854Z,5.90
2023-05-14T21:59:29.977Z,5.90
2023-05-14T22:02:06.966Z,5.50
2023-05-14T22:04:36.360Z,6.50
2023-05-14T22:07:04.612Z,5.90
2023-05-14T22:09:32.723Z,5.70
2023-05-14T22:12:00.733Z,5.70
2023-05-14T22:14:28.929Z,6.20
2023-05-14T22:16:57.105Z,6.10
2023-05-14T22:19:26.877Z,6.40
2023-05-14T22:21:54.904Z,5.80
2023-05-14T22:24:22.811Z,6.60
2023-05-14T22:26:50.790Z,6.30
2023-05-14T22:29:18.736Z,6.40
2023-05-14T22:31:46.724Z,6.10
2023-05-14T22:34:14.668Z,5.70
2023-05-14T22:36:42.603Z,5.40
2023-05-14T22:39:12.692Z,7.00
2023-05-14T22:41:41.424Z,6.30
2023-05-14T22:44:09.410Z,6.00
2023-05-14T22:46:37.388Z,7.20
2023-05-14T22:49:05.301Z,6.10
2023-05-14T22:51:33.187Z,5.90
2023-05-14T22:54:01.258Z,7.20
2023-05-14T22:56:29.223Z,6.70
2023-05-14T22:59:00.389Z,6.20
2023-05-14T23:01:30.448Z,5.70
2023-05-14T23:03:58.547Z,6.80
2023-05-14T23:06:26.647Z,6.60
2023-05-14T23:08:54.583Z,6.40
2023-05-14T23:11:22.646Z,6.70
2023-05-14T23:13:50.733Z,7.40
2023-05-14T23:16:20.661Z,5.70
2023-05-14T23:18:48.723Z,6.90
2023-05-14T23:21:16.829Z,6.10
2023-05-14T23:23:45.574Z,6.30
2023-05-14T23:26:13.611Z,6.30
2023-05-14T23:28:41.612Z,6.30
2023-05-14T23:31:09.530Z,6.30
2023-05-14T23:33:39.805Z,7.00
2023-05-14T23:36:08.309Z,7.00
2023-05-14T23:38:36.374Z,6.40
2023-05-14T23:41:04.700Z,6.70
2023-05-14T23:43:33.934Z,7.40
2023-05-14T23:46:02.015Z,7.30
2023-05-14T23:48:30.103Z,6.20
2023-05-14T23:50:57.970Z,6.20
2023-05-14T23:53:25.974Z,7.00
2023-05-14T23:55:53.979Z,7.10
2023-05-14T23:58:21.924Z,6.60
